sensor_id;sensor_type;location;lat;lon;timestamp;P1;durP1;ratioP1;P2;durP2;ratioP2
48613;SDS011;34408;51.426;5.444;2023-04-20T00:01:09;5.53;;;1.80;;
48613;SDS011;34408;51.426;5.444;2023-04-20T00:03:37;4.13;;;2.00;;
48613;SDS011;34408;51.426;5.444;2023-04-20T00:06:05;4.90;;;2.08;;
48613;SDS011;34408;51.426;5.444;2023-04-20T00:08:33;9.52;;;3.00;;
48613;SDS011;34408;51.426;5.444;2023-04-20T00:11:01;7.05;;;2.10;;
48613;SDS011;34408;51.426;5.444;2023-04-20T00:13:30;7.47;;;2.70;;
48613;SDS011;34408;51.426;5.444;2023-04-20T00:15:58;3.35;;;2.10;;
48613;SDS011;34408;51.426;5.444;2023-04-20T00:18:25;5.13;;;2.10;;
48613;SDS011;34408;51.426;5.444;2023-04-20T00:20:53;4.88;;;2.90;;
48613;SDS011;34408;51.426;5.444;2023-04-20T00:23:21;7.18;;;2.30;;
48613;SDS011;34408;51.426;5.444;2023-04-20T00:25:48;5.82;;;2.20;;
48613;SDS011;34408;51.426;5.444;2023-04-20T00:28:17;5.32;;;2.35;;
48613;SDS011;34408;51.426;5.444;2023-04-20T00:30:46;7.80;;;3.00;;
48613;SDS011;34408;51.426;5.444;2023-04-20T00:33:14;7.18;;;3.22;;
48613;SDS011;34408;51.426;5.444;2023-04-20T00:35:42;5.03;;;2.40;;
48613;SDS011;34408;51.426;5.444;2023-04-20T00:38:09;5.93;;;2.03;;
48613;SDS011;34408;51.426;5.444;2023-04-20T00:40:37;5.28;;;2.15;;
48613;SDS011;34408;51.426;5.444;2023-04-20T00:43:08;7.88;;;2.60;;
48613;SDS011;34408;51.426;5.444;2023-04-20T00:45:36;5.53;;;2.00;;
48613;SDS011;34408;51.426;5.444;2023-04-20T00:48:06;4.70;;;2.40;;
48613;SDS011;34408;51.426;5.444;2023-04-20T00:50:33;4.53;;;1.88;;
48613;SDS011;34408;51.426;5.444;2023-04-20T00:53:03;3.83;;;2.15;;
48613;SDS011;34408;51.426;5.444;2023-04-20T00:55:33;5.50;;;2.55;;
48613;SDS011;34408;51.426;5.444;2023-04-20T00:58:03;6.55;;;2.22;;
48613;SDS011;34408;51.426;5.444;2023-04-20T01:00:31;5.30;;;2.28;;
48613;SDS011;34408;51.426;5.444;2023-04-20T01:03:00;5.20;;;2.03;;
48613;SDS011;34408;51.426;5.444;2023-04-20T01:05:29;3.40;;;2.03;;
48613;SDS011;34408;51.426;5.444;2023-04-20T01:07:57;8.10;;;2.10;;
48613;SDS011;34408;51.426;5.444;2023-04-20T01:10:25;6.75;;;2.20;;
48613;SDS011;34408;51.426;5.444;2023-04-20T01:12:53;10.73;;;2.35;;
48613;SDS011;34408;51.426;5.444;2023-04-20T01:15:20;7.50;;;2.10;;
48613;SDS011;34408;51.426;5.444;2023-04-20T01:17:48;3.08;;;2.08;;
48613;SDS011;34408;51.426;5.444;2023-04-20T01:20:17;5.60;;;2.13;;
48613;SDS011;34408;51.426;5.444;2023-04-20T01:22:47;6.15;;;2.25;;
48613;SDS011;34408;51.426;5.444;2023-04-20T01:25:16;4.53;;;2.30;;
48613;SDS011;34408;51.426;5.444;2023-04-20T01:27:45;3.42;;;2.03;;
48613;SDS011;34408;51.426;5.444;2023-04-20T01:30:13;3.85;;;2.00;;
48613;SDS011;34408;51.426;5.444;2023-04-20T01:32:42;5.65;;;3.10;;
48613;SDS011;34408;51.426;5.444;2023-04-20T01:35:10;4.40;;;2.53;;
48613;SDS011;34408;51.426;5.444;2023-04-20T01:37:38;4.68;;;2.40;;
48613;SDS011;34408;51.426;5.444;2023-04-20T01:40:09;6.10;;;1.77;;
48613;SDS011;34408;51.426;5.444;2023-04-20T01:42:38;7.13;;;2.10;;
48613;SDS011;34408;51.426;5.444;2023-04-20T01:45:07;3.17;;;2.25;;
48613;SDS011;34408;51.426;5.444;2023-04-20T01:47:35;3.42;;;2.20;;
48613;SDS011;34408;51.426;5.444;2023-04-20T01:50:03;3.25;;;2.10;;
48613;SDS011;34408;51.426;5.444;2023-04-20T01:52:31;4.60;;;1.88;;
48613;SDS011;34408;51.426;5.444;2023-04-20T01:54:59;3.42;;;2.10;;
48613;SDS011;34408;51.426;5.444;2023-04-20T01:57:28;5.82;;;2.38;;
48613;SDS011;34408;51.426;5.444;2023-04-20T01:59:56;4.82;;;2.53;;
48613;SDS011;34408;51.426;5.444;2023-04-20T02:02:24;4.75;;;2.15;;
48613;SDS011;34408;51.426;5.444;2023-04-20T02:04:52;3.55;;;1.90;;
48613;SDS011;34408;51.426;5.444;2023-04-20T02:07:19;5.85;;;1.98;;
48613;SDS011;34408;51.426;5.444;2023-04-20T02:09:47;3.35;;;2.17;;
48613;SDS011;34408;51.426;5.444;2023-04-20T02:12:15;4.82;;;2.20;;
48613;SDS011;34408;51.426;5.444;2023-04-20T02:14:44;3.67;;;2.20;;
48613;SDS011;34408;51.426;5.444;2023-04-20T02:17:11;4.25;;;2.22;;
48613;SDS011;34408;51.426;5.444;2023-04-20T02:19:40;6.55;;;2.35;;
48613;SDS011;34408;51.426;5.444;2023-04-20T02:22:08;6.88;;;2.17;;
48613;SDS011;34408;51.426;5.444;2023-04-20T02:24:35;4.88;;;2.50;;
48613;SDS011;34408;51.426;5.444;2023-04-20T02:27:03;5.18;;;2.42;;
48613;SDS011;34408;51.426;5.444;2023-04-20T02:29:31;3.70;;;1.95;;
48613;SDS011;34408;51.426;5.444;2023-04-20T02:32:00;9.10;;;2.05;;
48613;SDS011;34408;51.426;5.444;2023-04-20T02:34:28;3.40;;;1.90;;
48613;SDS011;34408;51.426;5.444;2023-04-20T02:36:56;6.75;;;2.08;;
48613;SDS011;34408;51.426;5.444;2023-04-20T02:39:23;6.70;;;2.55;;
48613;SDS011;34408;51.426;5.444;2023-04-20T02:41:51;7.30;;;2.30;;
48613;SDS011;34408;51.426;5.444;2023-04-20T02:44:19;4.55;;;2.63;;
48613;SDS011;34408;51.426;5.444;2023-04-20T02:46:46;5.85;;;2.28;;
48613;SDS011;34408;51.426;5.444;2023-04-20T02:49:16;5.78;;;1.83;;
48613;SDS011;34408;51.426;5.444;2023-04-20T02:51:44;4.10;;;1.85;;
48613;SDS011;34408;51.426;5.444;2023-04-20T02:54:12;5.97;;;2.17;;
48613;SDS011;34408;51.426;5.444;2023-04-20T02:56:39;5.60;;;1.80;;
48613;SDS011;34408;51.426;5.444;2023-04-20T02:59:07;4.07;;;1.92;;
48613;SDS011;34408;51.426;5.444;2023-04-20T03:01:35;2.95;;;1.90;;
48613;SDS011;34408;51.426;5.444;2023-04-20T03:04:03;10.18;;;2.13;;
48613;SDS011;34408;51.426;5.444;2023-04-20T03:06:33;6.90;;;1.90;;
48613;SDS011;34408;51.426;5.444;2023-04-20T03:09:04;6.32;;;2.22;;
48613;SDS011;34408;51.426;5.444;2023-04-20T03:11:34;3.65;;;2.33;;
48613;SDS011;34408;51.426;5.444;2023-04-20T03:14:01;5.95;;;1.90;;
48613;SDS011;34408;51.426;5.444;2023-04-20T03:16:29;4.10;;;2.03;;
48613;SDS011;34408;51.426;5.444;2023-04-20T03:18:57;6.05;;;2.30;;
48613;SDS011;34408;51.426;5.444;2023-04-20T03:21:25;6.70;;;2.10;;
48613;SDS011;34408;51.426;5.444;2023-04-20T03:23:54;4.68;;;2.22;;
48613;SDS011;34408;51.426;5.444;2023-04-20T03:26:21;6.00;;;2.35;;
48613;SDS011;34408;51.426;5.444;2023-04-20T03:28:49;6.68;;;1.90;;
48613;SDS011;34408;51.426;5.444;2023-04-20T03:31:17;6.95;;;2.47;;
48613;SDS011;34408;51.426;5.444;2023-04-20T03:33:45;4.38;;;2.10;;
48613;SDS011;34408;51.426;5.444;2023-04-20T03:36:13;4.82;;;2.25;;
48613;SDS011;34408;51.426;5.444;2023-04-20T03:38:40;6.10;;;2.40;;
48613;SDS011;34408;51.426;5.444;2023-04-20T03:41:09;4.90;;;2.58;;
48613;SDS011;34408;51.426;5.444;2023-04-20T03:43:37;5.30;;;2.78;;
48613;SDS011;34408;51.426;5.444;2023-04-20T03:46:06;4.28;;;2.17;;
48613;SDS011;34408;51.426;5.444;2023-04-20T03:48:34;4.47;;;2.58;;
48613;SDS011;34408;51.426;5.444;2023-04-20T03:51:02;5.35;;;2.85;;
48613;SDS011;34408;51.426;5.444;2023-04-20T03:53:29;4.55;;;2.35;;
48613;SDS011;34408;51.426;5.444;2023-04-20T03:55:57;6.28;;;2.90;;
48613;SDS011;34408;51.426;5.444;2023-04-20T03:58:27;4.57;;;2.42;;
48613;SDS011;34408;51.426;5.444;2023-04-20T04:00:59;6.82;;;2.40;;
48613;SDS011;34408;51.426;5.444;2023-04-20T04:03:27;9.30;;;2.95;;
48613;SDS011;34408;51.426;5.444;2023-04-20T04:05:55;4.28;;;2.60;;
48613;SDS011;34408;51.426;5.444;2023-04-20T04:08:23;6.95;;;2.50;;
48613;SDS011;34408;51.426;5.444;2023-04-20T04:10:51;11.07;;;2.75;;
48613;SDS011;34408;51.426;5.444;2023-04-20T04:13:19;5.93;;;2.53;;
48613;SDS011;34408;51.426;5.444;2023-04-20T04:15:48;3.90;;;2.40;;
48613;SDS011;34408;51.426;5.444;2023-04-20T04:18:16;6.70;;;2.50;;
48613;SDS011;34408;51.426;5.444;2023-04-20T04:20:44;5.18;;;2.35;;
48613;SDS011;34408;51.426;5.444;2023-04-20T04:23:11;6.82;;;2.80;;
48613;SDS011;34408;51.426;5.444;2023-04-20T04:25:39;6.03;;;2.22;;
48613;SDS011;34408;51.426;5.444;2023-04-20T04:28:07;5.45;;;2.28;;
48613;SDS011;34408;51.426;5.444;2023-04-20T04:30:35;4.20;;;2.35;;
48613;SDS011;34408;51.426;5.444;2023-04-20T04:33:04;4.45;;;2.50;;
48613;SDS011;34408;51.426;5.444;2023-04-20T04:35:32;6.07;;;2.42;;
48613;SDS011;34408;51.426;5.444;2023-04-20T04:38:00;5.47;;;2.78;;
48613;SDS011;34408;51.426;5.444;2023-04-20T04:40:28;5.70;;;2.30;;
48613;SDS011;34408;51.426;5.444;2023-04-20T04:42:57;6.28;;;2.50;;
48613;SDS011;34408;51.426;5.444;2023-04-20T04:45:26;9.45;;;3.22;;
48613;SDS011;34408;51.426;5.444;2023-04-20T04:47:53;3.55;;;2.33;;
48613;SDS011;34408;51.426;5.444;2023-04-20T04:50:23;4.00;;;2.03;;
48613;SDS011;34408;51.426;5.444;2023-04-20T04:52:51;3.92;;;2.47;;
48613;SDS011;34408;51.426;5.444;2023-04-20T04:55:19;7.32;;;2.58;;
48613;SDS011;34408;51.426;5.444;2023-04-20T04:57:47;4.75;;;2.60;;
48613;SDS011;34408;51.426;5.444;2023-04-20T05:00:15;4.18;;;2.30;;
48613;SDS011;34408;51.426;5.444;2023-04-20T05:02:44;4.65;;;2.20;;
48613;SDS011;34408;51.426;5.444;2023-04-20T05:05:12;5.03;;;2.60;;
48613;SDS011;34408;51.426;5.444;2023-04-20T05:07:42;5.35;;;2.70;;
48613;SDS011;34408;51.426;5.444;2023-04-20T05:10:09;6.57;;;2.90;;
48613;SDS011;34408;51.426;5.444;2023-04-20T05:12:40;7.75;;;2.83;;
48613;SDS011;34408;51.426;5.444;2023-04-20T05:15:08;4.18;;;2.53;;
48613;SDS011;34408;51.426;5.444;2023-04-20T05:17:36;5.63;;;2.75;;
48613;SDS011;34408;51.426;5.444;2023-04-20T05:20:04;6.90;;;2.28;;
48613;SDS011;34408;51.426;5.444;2023-04-20T05:22:35;3.70;;;2.40;;
48613;SDS011;34408;51.426;5.444;2023-04-20T05:25:05;4.68;;;2.80;;
48613;SDS011;34408;51.426;5.444;2023-04-20T05:27:34;7.03;;;3.20;;
48613;SDS011;34408;51.426;5.444;2023-04-20T05:30:02;6.20;;;2.50;;
48613;SDS011;34408;51.426;5.444;2023-04-20T05:32:44;7.80;;;2.63;;
48613;SDS011;34408;51.426;5.444;2023-04-20T05:35:16;6.88;;;2.85;;
48613;SDS011;34408;51.426;5.444;2023-04-20T05:37:44;5.88;;;2.58;;
48613;SDS011;34408;51.426;5.444;2023-04-20T05:40:14;4.65;;;2.60;;
48613;SDS011;34408;51.426;5.444;2023-04-20T05:42:42;5.22;;;2.90;;
48613;SDS011;34408;51.426;5.444;2023-04-20T05:45:10;4.45;;;2.88;;
48613;SDS011;34408;51.426;5.444;2023-04-20T05:47:38;4.93;;;2.50;;
48613;SDS011;34408;51.426;5.444;2023-04-20T05:50:06;7.50;;;2.75;;
48613;SDS011;34408;51.426;5.444;2023-04-20T05:52:35;5.20;;;2.40;;
48613;SDS011;34408;51.426;5.444;2023-04-20T05:55:03;6.00;;;3.25;;
48613;SDS011;34408;51.426;5.444;2023-04-20T05:57:33;6.22;;;2.65;;
48613;SDS011;34408;51.426;5.444;2023-04-20T06:00:07;5.45;;;2.55;;
48613;SDS011;34408;51.426;5.444;2023-04-20T06:02:36;5.80;;;3.30;;
48613;SDS011;34408;51.426;5.444;2023-04-20T06:05:05;4.78;;;2.92;;
48613;SDS011;34408;51.426;5.444;2023-04-20T06:07:34;6.70;;;2.85;;
48613;SDS011;34408;51.426;5.444;2023-04-20T06:10:02;7.18;;;2.80;;
48613;SDS011;34408;51.426;5.444;2023-04-20T06:12:33;11.98;;;3.13;;
48613;SDS011;34408;51.426;5.444;2023-04-20T06:15:01;6.10;;;2.65;;
48613;SDS011;34408;51.426;5.444;2023-04-20T06:17:30;4.53;;;2.45;;
48613;SDS011;34408;51.426;5.444;2023-04-20T06:19:57;4.88;;;2.33;;
48613;SDS011;34408;51.426;5.444;2023-04-20T06:22:25;7.25;;;2.65;;
48613;SDS011;34408;51.426;5.444;2023-04-20T06:24:53;6.72;;;2.75;;
48613;SDS011;34408;51.426;5.444;2023-04-20T06:27:21;4.20;;;2.25;;
48613;SDS011;34408;51.426;5.444;2023-04-20T06:29:50;8.18;;;2.75;;
48613;SDS011;34408;51.426;5.444;2023-04-20T06:32:17;7.35;;;2.78;;
48613;SDS011;34408;51.426;5.444;2023-04-20T06:34:45;7.03;;;2.90;;
48613;SDS011;34408;51.426;5.444;2023-04-20T06:37:13;4.68;;;2.63;;
48613;SDS011;34408;51.426;5.444;2023-04-20T06:39:41;8.70;;;2.78;;
48613;SDS011;34408;51.426;5.444;2023-04-20T06:42:09;5.85;;;2.60;;
48613;SDS011;34408;51.426;5.444;2023-04-20T06:44:36;6.90;;;2.60;;
48613;SDS011;34408;51.426;5.444;2023-04-20T06:47:05;9.63;;;2.80;;
48613;SDS011;34408;51.426;5.444;2023-04-20T06:49:33;8.23;;;3.10;;
48613;SDS011;34408;51.426;5.444;2023-04-20T06:52:02;5.18;;;3.17;;
48613;SDS011;34408;51.426;5.444;2023-04-20T06:54:30;5.22;;;2.67;;
48613;SDS011;34408;51.426;5.444;2023-04-20T06:56:58;5.68;;;2.70;;
48613;SDS011;34408;51.426;5.444;2023-04-20T06:59:26;9.32;;;3.92;;
48613;SDS011;34408;51.426;5.444;2023-04-20T07:01:54;7.10;;;2.50;;
48613;SDS011;34408;51.426;5.444;2023-04-20T07:04:23;4.32;;;2.92;;
48613;SDS011;34408;51.426;5.444;2023-04-20T07:06:51;5.15;;;2.83;;
48613;SDS011;34408;51.426;5.444;2023-04-20T07:09:19;5.20;;;2.75;;
48613;SDS011;34408;51.426;5.444;2023-04-20T07:11:48;5.05;;;3.22;;
48613;SDS011;34408;51.426;5.444;2023-04-20T07:14:16;4.20;;;3.08;;
48613;SDS011;34408;51.426;5.444;2023-04-20T07:16:43;4.95;;;2.85;;
48613;SDS011;34408;51.426;5.444;2023-04-20T07:19:11;5.85;;;3.55;;
48613;SDS011;34408;51.426;5.444;2023-04-20T07:21:40;7.22;;;2.72;;
48613;SDS011;34408;51.426;5.444;2023-04-20T07:24:08;5.75;;;3.05;;
48613;SDS011;34408;51.426;5.444;2023-04-20T07:26:36;5.75;;;2.47;;
48613;SDS011;34408;51.426;5.444;2023-04-20T07:29:03;4.32;;;2.33;;
48613;SDS011;34408;51.426;5.444;2023-04-20T07:31:31;5.57;;;3.17;;
48613;SDS011;34408;51.426;5.444;2023-04-20T07:34:00;8.73;;;2.75;;
48613;SDS011;34408;51.426;5.444;2023-04-20T07:36:28;6.93;;;2.80;;
48613;SDS011;34408;51.426;5.444;2023-04-20T07:38:57;4.15;;;2.88;;
48613;SDS011;34408;51.426;5.444;2023-04-20T07:41:25;7.50;;;2.85;;
48613;SDS011;34408;51.426;5.444;2023-04-20T07:43:53;6.03;;;3.00;;
48613;SDS011;34408;51.426;5.444;2023-04-20T07:46:21;5.45;;;2.67;;
48613;SDS011;34408;51.426;5.444;2023-04-20T07:48:49;5.03;;;3.00;;
48613;SDS011;34408;51.426;5.444;2023-04-20T07:51:16;3.90;;;2.83;;
48613;SDS011;34408;51.426;5.444;2023-04-20T07:53:45;5.07;;;2.78;;
48613;SDS011;34408;51.426;5.444;2023-04-20T07:56:14;3.80;;;2.60;;
48613;SDS011;34408;51.426;5.444;2023-04-20T07:58:42;6.85;;;2.70;;
48613;SDS011;34408;51.426;5.444;2023-04-20T08:01:10;3.85;;;2.33;;
48613;SDS011;34408;51.426;5.444;2023-04-20T08:03:37;3.80;;;2.58;;
48613;SDS011;34408;51.426;5.444;2023-04-20T08:06:08;5.80;;;2.75;;
48613;SDS011;34408;51.426;5.444;2023-04-20T08:08:36;6.35;;;2.65;;
48613;SDS011;34408;51.426;5.444;2023-04-20T08:11:03;4.93;;;2.40;;
48613;SDS011;34408;51.426;5.444;2023-04-20T08:13:34;3.80;;;2.65;;
48613;SDS011;34408;51.426;5.444;2023-04-20T08:16:03;6.28;;;2.42;;
48613;SDS011;34408;51.426;5.444;2023-04-20T08:18:31;5.07;;;2.47;;
48613;SDS011;34408;51.426;5.444;2023-04-20T08:20:59;5.30;;;2.22;;
48613;SDS011;34408;51.426;5.444;2023-04-20T08:23:26;6.07;;;2.13;;
48613;SDS011;34408;51.426;5.444;2023-04-20T08:25:54;3.85;;;2.22;;
48613;SDS011;34408;51.426;5.444;2023-04-20T08:28:22;3.70;;;2.20;;
48613;SDS011;34408;51.426;5.444;2023-04-20T08:30:56;9.30;;;2.20;;
48613;SDS011;34408;51.426;5.444;2023-04-20T08:33:24;4.68;;;2.30;;
48613;SDS011;34408;51.426;5.444;2023-04-20T08:35:51;5.85;;;2.00;;
48613;SDS011;34408;51.426;5.444;2023-04-20T08:38:19;3.85;;;2.13;;
48613;SDS011;34408;51.426;5.444;2023-04-20T08:40:59;3.85;;;2.15;;
48613;SDS011;34408;51.426;5.444;2023-04-20T08:43:27;4.03;;;2.20;;
48613;SDS011;34408;51.426;5.444;2023-04-20T08:45:57;4.75;;;2.10;;
48613;SDS011;34408;51.426;5.444;2023-04-20T08:48:27;5.80;;;2.63;;
48613;SDS011;34408;51.426;5.444;2023-04-20T08:51:00;4.70;;;2.55;;
48613;SDS011;34408;51.426;5.444;2023-04-20T08:53:28;4.35;;;2.53;;
48613;SDS011;34408;51.426;5.444;2023-04-20T08:55:56;7.50;;;2.80;;
48613;SDS011;34408;51.426;5.444;2023-04-20T08:58:24;4.10;;;2.30;;
48613;SDS011;34408;51.426;5.444;2023-04-20T09:00:54;5.25;;;2.40;;
48613;SDS011;34408;51.426;5.444;2023-04-20T09:03:31;3.90;;;2.17;;
48613;SDS011;34408;51.426;5.444;2023-04-20T09:05:59;3.42;;;1.98;;
48613;SDS011;34408;51.426;5.444;2023-04-20T09:08:33;3.22;;;2.20;;
48613;SDS011;34408;51.426;5.444;2023-04-20T09:11:01;3.75;;;2.38;;
48613;SDS011;34408;51.426;5.444;2023-04-20T09:13:29;3.58;;;1.95;;
48613;SDS011;34408;51.426;5.444;2023-04-20T09:15:57;5.22;;;2.20;;
48613;SDS011;34408;51.426;5.444;2023-04-20T09:18:37;3.33;;;2.22;;
48613;SDS011;34408;51.426;5.444;2023-04-20T09:21:07;4.65;;;2.85;;
48613;SDS011;34408;51.426;5.444;2023-04-20T09:23:36;3.78;;;2.33;;
48613;SDS011;34408;51.426;5.444;2023-04-20T09:26:03;5.45;;;2.75;;
48613;SDS011;34408;51.426;5.444;2023-04-20T09:28:35;6.57;;;2.38;;
48613;SDS011;34408;51.426;5.444;2023-04-20T09:31:04;4.78;;;2.42;;
48613;SDS011;34408;51.426;5.444;2023-04-20T09:33:32;5.25;;;2.15;;
48613;SDS011;34408;51.426;5.444;2023-04-20T09:36:03;2.42;;;1.90;;
48613;SDS011;34408;51.426;5.444;2023-04-20T09:38:32;3.30;;;2.00;;
48613;SDS011;34408;51.426;5.444;2023-04-20T09:40:59;3.50;;;1.85;;
48613;SDS011;34408;51.426;5.444;2023-04-20T09:43:28;4.82;;;2.30;;
48613;SDS011;34408;51.426;5.444;2023-04-20T09:45:56;3.97;;;2.00;;
48613;SDS011;34408;51.426;5.444;2023-04-20T09:48:25;4.88;;;2.15;;
48613;SDS011;34408;51.426;5.444;2023-04-20T09:50:56;7.90;;;2.42;;
48613;SDS011;34408;51.426;5.444;2023-04-20T09:53:25;3.50;;;1.88;;
48613;SDS011;34408;51.426;5.444;2023-04-20T09:55:53;3.95;;;2.22;;
48613;SDS011;34408;51.426;5.444;2023-04-20T09:58:21;2.53;;;2.17;;
48613;SDS011;34408;51.426;5.444;2023-04-20T10:00:49;4.22;;;1.90;;
48613;SDS011;34408;51.426;5.444;2023-04-20T10:03:17;4.68;;;1.90;;
48613;SDS011;34408;51.426;5.444;2023-04-20T10:05:47;6.55;;;2.33;;
48613;SDS011;34408;51.426;5.444;2023-04-20T10:08:18;7.32;;;2.10;;
48613;SDS011;34408;51.426;5.444;2023-04-20T10:10:48;3.38;;;1.88;;
48613;SDS011;34408;51.426;5.444;2023-04-20T10:13:17;4.22;;;2.25;;
48613;SDS011;34408;51.426;5.444;2023-04-20T10:15:47;3.05;;;2.00;;
48613;SDS011;34408;51.426;5.444;2023-04-20T10:18:15;4.57;;;2.17;;
48613;SDS011;34408;51.426;5.444;2023-04-20T10:20:45;4.38;;;1.90;;
48613;SDS011;34408;51.426;5.444;2023-04-20T10:23:13;4.43;;;1.83;;
48613;SDS011;34408;51.426;5.444;2023-04-20T10:25:54;3.75;;;1.88;;
48613;SDS011;34408;51.426;5.444;2023-04-20T10:28:23;4.38;;;2.13;;
48613;SDS011;34408;51.426;5.444;2023-04-20T10:30:51;4.40;;;2.50;;
48613;SDS011;34408;51.426;5.444;2023-04-20T10:33:20;3.80;;;2.05;;
48613;SDS011;34408;51.426;5.444;2023-04-20T10:35:49;3.50;;;2.13;;
48613;SDS011;34408;51.426;5.444;2023-04-20T10:38:29;4.60;;;2.05;;
48613;SDS011;34408;51.426;5.444;2023-04-20T10:41:05;4.97;;;1.90;;
48613;SDS011;34408;51.426;5.444;2023-04-20T10:43:33;8.68;;;2.92;;
48613;SDS011;34408;51.426;5.444;2023-04-20T10:46:11;7.40;;;2.53;;
48613;SDS011;34408;51.426;5.444;2023-04-20T10:48:47;4.88;;;2.15;;
48613;SDS011;34408;51.426;5.444;2023-04-20T10:51:16;2.28;;;1.90;;
48613;SDS011;34408;51.426;5.444;2023-04-20T10:53:44;9.38;;;2.20;;
48613;SDS011;34408;51.426;5.444;2023-04-20T10:56:13;4.50;;;2.13;;
48613;SDS011;34408;51.426;5.444;2023-04-20T10:58:41;4.70;;;2.45;;
48613;SDS011;34408;51.426;5.444;2023-04-20T11:01:08;4.82;;;2.72;;
48613;SDS011;34408;51.426;5.444;2023-04-20T11:03:36;4.82;;;2.40;;
48613;SDS011;34408;51.426;5.444;2023-04-20T11:06:04;3.63;;;1.90;;
48613;SDS011;34408;51.426;5.444;2023-04-20T11:08:36;5.05;;;1.95;;
48613;SDS011;34408;51.426;5.444;2023-04-20T11:11:05;4.05;;;2.40;;
48613;SDS011;34408;51.426;5.444;2023-04-20T11:13:44;4.05;;;2.30;;
48613;SDS011;34408;51.426;5.444;2023-04-20T11:16:13;4.75;;;2.00;;
48613;SDS011;34408;51.426;5.444;2023-04-20T11:18:47;6.53;;;2.33;;
48613;SDS011;34408;51.426;5.444;2023-04-20T11:21:16;3.95;;;2.00;;
48613;SDS011;34408;51.426;5.444;2023-04-20T11:23:44;4.15;;;2.67;;
48613;SDS011;34408;51.426;5.444;2023-04-20T11:26:12;8.30;;;2.90;;
48613;SDS011;34408;51.426;5.444;2023-04-20T11:28:51;8.25;;;2.60;;
48613;SDS011;34408;51.426;5.444;2023-04-20T11:31:21;4.78;;;3.13;;
48613;SDS011;34408;51.426;5.444;2023-04-20T11:33:50;12.40;;;2.85;;
48613;SDS011;34408;51.426;5.444;2023-04-20T11:36:19;5.05;;;2.33;;
48613;SDS011;34408;51.426;5.444;2023-04-20T11:38:47;4.97;;;2.60;;
48613;SDS011;34408;51.426;5.444;2023-04-20T11:41:15;5.38;;;3.17;;
48613;SDS011;34408;51.426;5.444;2023-04-20T11:43:43;3.20;;;2.03;;
48613;SDS011;34408;51.426;5.444;2023-04-20T11:46:13;6.00;;;2.72;;
48613;SDS011;34408;51.426;5.444;2023-04-20T11:48:42;4.13;;;2.55;;
48613;SDS011;34408;51.426;5.444;2023-04-20T11:51:10;5.03;;;3.22;;
48613;SDS011;34408;51.426;5.444;2023-04-20T11:53:38;7.93;;;4.25;;
48613;SDS011;34408;51.426;5.444;2023-04-20T11:56:06;4.93;;;2.70;;
48613;SDS011;34408;51.426;5.444;2023-04-20T11:58:34;6.72;;;3.40;;
48613;SDS011;34408;51.426;5.444;2023-04-20T12:01:03;5.95;;;2.97;;
48613;SDS011;34408;51.426;5.444;2023-04-20T12:03:33;4.70;;;2.45;;
48613;SDS011;34408;51.426;5.444;2023-04-20T12:06:02;4.13;;;2.42;;
48613;SDS011;34408;51.426;5.444;2023-04-20T12:08:30;7.30;;;2.97;;
48613;SDS011;34408;51.426;5.444;2023-04-20T12:10:58;5.88;;;2.65;;
48613;SDS011;34408;51.426;5.444;2023-04-20T12:13:26;4.03;;;2.60;;
48613;SDS011;34408;51.426;5.444;2023-04-20T12:15:53;4.45;;;2.70;;
48613;SDS011;34408;51.426;5.444;2023-04-20T12:18:21;3.95;;;2.65;;
48613;SDS011;34408;51.426;5.444;2023-04-20T12:20:53;4.50;;;2.65;;
48613;SDS011;34408;51.426;5.444;2023-04-20T12:23:21;4.63;;;2.35;;
48613;SDS011;34408;51.426;5.444;2023-04-20T12:25:48;6.40;;;3.17;;
48613;SDS011;34408;51.426;5.444;2023-04-20T12:28:16;4.20;;;2.80;;
48613;SDS011;34408;51.426;5.444;2023-04-20T12:30:44;3.70;;;2.20;;
48613;SDS011;34408;51.426;5.444;2023-04-20T12:33:12;5.25;;;2.80;;
48613;SDS011;34408;51.426;5.444;2023-04-20T12:35:40;4.18;;;2.65;;
48613;SDS011;34408;51.426;5.444;2023-04-20T12:38:09;3.05;;;2.10;;
48613;SDS011;34408;51.426;5.444;2023-04-20T12:40:39;3.63;;;2.70;;
48613;SDS011;34408;51.426;5.444;2023-04-20T12:43:07;4.47;;;3.00;;
48613;SDS011;34408;51.426;5.444;2023-04-20T12:45:35;4.07;;;2.60;;
48613;SDS011;34408;51.426;5.444;2023-04-20T12:48:03;4.75;;;3.30;;
48613;SDS011;34408;51.426;5.444;2023-04-20T12:50:31;4.10;;;2.63;;
48613;SDS011;34408;51.426;5.444;2023-04-20T12:52:59;4.22;;;2.58;;
48613;SDS011;34408;51.426;5.444;2023-04-20T12:55:29;5.07;;;3.20;;
48613;SDS011;34408;51.426;5.444;2023-04-20T12:57:57;4.95;;;2.67;;
48613;SDS011;34408;51.426;5.444;2023-04-20T13:00:24;8.13;;;3.40;;
48613;SDS011;34408;51.426;5.444;2023-04-20T13:02:52;8.07;;;3.63;;
48613;SDS011;34408;51.426;5.444;2023-04-20T13:05:20;4.97;;;3.17;;
48613;SDS011;34408;51.426;5.444;2023-04-20T13:07:48;6.25;;;3.58;;
48613;SDS011;34408;51.426;5.444;2023-04-20T13:10:16;4.85;;;3.17;;
48613;SDS011;34408;51.426;5.444;2023-04-20T13:12:45;4.32;;;2.55;;
48613;SDS011;34408;51.426;5.444;2023-04-20T13:15:13;5.82;;;2.92;;
48613;SDS011;34408;51.426;5.444;2023-04-20T13:17:57;4.40;;;2.83;;
48613;SDS011;34408;51.426;5.444;2023-04-20T13:20:25;5.38;;;3.33;;
48613;SDS011;34408;51.426;5.444;2023-04-20T13:22:54;3.95;;;2.80;;
48613;SDS011;34408;51.426;5.444;2023-04-20T13:25:23;4.72;;;3.20;;
48613;SDS011;34408;51.426;5.444;2023-04-20T13:27:53;4.72;;;2.72;;
48613;SDS011;34408;51.426;5.444;2023-04-20T13:30:21;4.70;;;3.17;;
48613;SDS011;34408;51.426;5.444;2023-04-20T13:32:50;3.67;;;3.10;;
48613;SDS011;34408;51.426;5.444;2023-04-20T13:35:18;5.15;;;3.30;;
48613;SDS011;34408;51.426;5.444;2023-04-20T13:37:46;6.57;;;3.25;;
48613;SDS011;34408;51.426;5.444;2023-04-20T13:40:14;9.18;;;3.58;;
48613;SDS011;34408;51.426;5.444;2023-04-20T13:42:41;14.93;;;3.67;;
48613;SDS011;34408;51.426;5.444;2023-04-20T13:45:11;6.03;;;3.53;;
48613;SDS011;34408;51.426;5.444;2023-04-20T13:47:39;11.15;;;4.05;;
48613;SDS011;34408;51.426;5.444;2023-04-20T13:50:07;14.20;;;4.65;;
48613;SDS011;34408;51.426;5.444;2023-04-20T13:52:35;12.35;;;4.85;;
48613;SDS011;34408;51.426;5.444;2023-04-20T13:55:03;13.20;;;4.68;;
48613;SDS011;34408;51.426;5.444;2023-04-20T13:57:41;13.82;;;5.13;;
48613;SDS011;34408;51.426;5.444;2023-04-20T14:00:09;13.82;;;4.57;;
48613;SDS011;34408;51.426;5.444;2023-04-20T14:02:38;21.05;;;6.10;;
48613;SDS011;34408;51.426;5.444;2023-04-20T14:05:06;29.77;;;5.55;;
48613;SDS011;34408;51.426;5.444;2023-04-20T14:07:35;15.30;;;4.75;;
48613;SDS011;34408;51.426;5.444;2023-04-20T14:10:03;19.65;;;5.38;;
48613;SDS011;34408;51.426;5.444;2023-04-20T14:12:32;18.63;;;5.10;;
48613;SDS011;34408;51.426;5.444;2023-04-20T14:15:01;22.20;;;5.13;;
48613;SDS011;34408;51.426;5.444;2023-04-20T14:17:29;24.30;;;5.60;;
48613;SDS011;34408;51.426;5.444;2023-04-20T14:19:57;16.45;;;4.88;;
48613;SDS011;34408;51.426;5.444;2023-04-20T14:22:25;17.55;;;5.43;;
48613;SDS011;34408;51.426;5.444;2023-04-20T14:24:59;15.95;;;4.78;;
48613;SDS011;34408;51.426;5.444;2023-04-20T14:27:27;17.60;;;5.47;;
48613;SDS011;34408;51.426;5.444;2023-04-20T14:29:54;14.40;;;4.63;;
48613;SDS011;34408;51.426;5.444;2023-04-20T14:32:23;18.45;;;4.93;;
48613;SDS011;34408;51.426;5.444;2023-04-20T14:34:51;14.05;;;4.05;;
48613;SDS011;34408;51.426;5.444;2023-04-20T14:37:19;17.33;;;4.90;;
48613;SDS011;34408;51.426;5.444;2023-04-20T14:39:48;13.68;;;4.50;;
48613;SDS011;34408;51.426;5.444;2023-04-20T14:42:16;15.23;;;4.30;;
48613;SDS011;34408;51.426;5.444;2023-04-20T14:44:43;10.88;;;4.60;;
48613;SDS011;34408;51.426;5.444;2023-04-20T14:47:13;11.25;;;4.85;;
48613;SDS011;34408;51.426;5.444;2023-04-20T14:49:42;15.90;;;4.45;;
48613;SDS011;34408;51.426;5.444;2023-04-20T14:52:10;18.33;;;4.15;;
48613;SDS011;34408;51.426;5.444;2023-04-20T14:54:38;10.00;;;4.03;;